createdAt,value
2022-08-09T00:01:43.211Z,98752.59
2022-08-09T00:04:35.122Z,98749.28
2022-08-09T00:07:10.356Z,98745.19
2022-08-09T00:09:38.332Z,98751.72
2022-08-09T00:12:06.013Z,98755.66
2022-08-09T00:14:36.622Z,98745.03
2022-08-09T00:17:06.293Z,98759.31
2022-08-09T00:19:34.075Z,98759.06
2022-08-09T00:22:03.523Z,98755.97
2022-08-09T00:24:32.000Z,98762.09
2022-08-09T00:27:00.330Z,98753.19
2022-08-09T00:29:39.165Z,98753.34
2022-08-09T00:32:26.524Z,98755.53
2022-08-09T00:35:04.357Z,98756.59
2022-08-09T00:37:32.546Z,98763.28
2022-08-09T00:40:13.403Z,98760.53
2022-08-09T00:44:19.801Z,98758.06
2022-08-09T00:45:34.942Z,98772.25
2022-08-09T00:48:03.811Z,98768.03
2022-08-09T00:50:31.622Z,98765.00
2022-08-09T00:52:58.987Z,98762.00
2022-08-09T00:56:03.127Z,98767.03
2022-08-09T00:58:14.583Z,98764.56
2022-08-09T01:00:53.972Z,98773.66
2022-08-09T01:03:47.103Z,98764.91
2022-08-09T01:06:35.404Z,98763.53
2022-08-09T01:09:36.830Z,98763.41
2022-08-09T01:12:37.316Z,98758.19
2022-08-09T01:15:16.976Z,98759.16
2022-08-09T01:17:59.640Z,98765.13
2022-08-09T01:20:45.379Z,98757.06
2022-08-09T01:24:02.212Z,98762.56
2022-08-09T01:27:03.733Z,98765.97
2022-08-09T01:29:59.271Z,98766.06
2022-08-09T01:32:35.066Z,98765.72
2022-08-09T01:35:28.764Z,98776.94
2022-08-09T01:38:08.146Z,98775.97
2022-08-09T01:40:43.068Z,98779.69
2022-08-09T01:43:11.389Z,98779.59
2022-08-09T01:45:44.772Z,98784.50
2022-08-09T01:48:17.467Z,98787.66
2022-08-09T01:50:55.182Z,98783.91
2022-08-09T01:53:28.986Z,98786.41
2022-08-09T01:56:04.083Z,98782.31
2022-08-09T01:58:33.387Z,98781.97
2022-08-09T02:01:01.707Z,98784.06
2022-08-09T02:03:31.523Z,98781.88
2022-08-09T02:06:06.285Z,98782.94
2022-08-09T02:08:58.847Z,98789.13
2022-08-09T02:11:40.327Z,98783.75
2022-08-09T02:14:15.862Z,98789.25
2022-08-09T02:17:09.011Z,98787.97
2022-08-09T02:19:43.754Z,98793.59
2022-08-09T02:22:31.663Z,98801.31
2022-08-09T02:25:09.121Z,98795.44
2022-08-09T02:27:57.524Z,98796.28
2022-08-09T02:30:27.766Z,98797.47
2022-08-09T02:32:56.917Z,98803.19
2022-08-09T02:36:02.099Z,98799.91
2022-08-09T02:38:28.619Z,98803.53
2022-08-09T02:41:03.697Z,98798.66
2022-08-09T02:43:42.504Z,98800.66
2022-08-09T02:46:23.861Z,98793.47
2022-08-09T02:48:53.929Z,98801.88
2022-08-09T02:51:22.667Z,98788.91
2022-08-09T02:54:01.350Z,98794.41
2022-08-09T02:56:32.350Z,98793.38
2022-08-09T02:59:03.869Z,98787.03
2022-08-09T03:01:42.734Z,98787.53
2022-08-09T03:04:21.515Z,98793.00
2022-08-09T03:06:59.773Z,98787.63
2022-08-09T03:09:42.959Z,98781.09
2022-08-09T03:12:13.437Z,98789.03
2022-08-09T03:14:43.968Z,98778.28
2022-08-09T03:17:20.330Z,98782.84
2022-08-09T03:19:58.649Z,98789.53
2022-08-09T03:22:41.245Z,98784.72
2022-08-09T03:25:26.713Z,98788.81
2022-08-09T03:27:59.477Z,98795.81
2022-08-09T03:30:34.082Z,98791.94
2022-08-09T03:33:17.982Z,98790.81
2022-08-09T03:36:12.614Z,98792.41
2022-08-09T03:38:43.058Z,98789.38
2022-08-09T03:41:16.409Z,98799.31
2022-08-09T03:44:03.777Z,98805.63
2022-08-09T03:46:34.376Z,98800.94
2022-08-09T03:49:08.677Z,98797.88
2022-08-09T03:51:57.533Z,98803.16
2022-08-09T03:54:34.850Z,98801.75
2022-08-09T03:57:18.270Z,98800.78
2022-08-09T03:59:54.514Z,98796.69
2022-08-09T04:02:28.537Z,98797.72
2022-08-09T04:05:05.913Z,98805.78
2022-08-09T04:07:52.502Z,98808.19
2022-08-09T04:10:29.680Z,98807.59
2022-08-09T04:13:00.985Z,98807.97
2022-08-09T04:15:39.051Z,98804.34
2022-08-09T04:18:17.935Z,98808.88
2022-08-09T04:20:49.887Z,98816.50
2022-08-09T04:23:23.354Z,98809.22
2022-08-09T04:25:53.028Z,98816.69
2022-08-09T04:28:33.084Z,98823.47
2022-08-09T04:31:07.739Z,98820.66
2022-08-09T04:33:52.013Z,98829.88
2022-08-09T04:36:25.837Z,98828.91
2022-08-09T04:38:55.136Z,98838.03
2022-08-09T04:41:24.210Z,98836.84
2022-08-09T04:44:06.536Z,98844.06
2022-08-09T04:46:58.286Z,98851.66
2022-08-09T04:49:52.836Z,98854.81
2022-08-09T04:52:26.438Z,98855.84
2022-08-09T04:54:59.934Z,98859.50
2022-08-09T04:57:59.359Z,98859.34
2022-08-09T05:00:16.850Z,98871.34
2022-08-09T05:02:48.679Z,98874.94
2022-08-09T05:05:31.965Z,98876.56
2022-08-09T05:08:07.576Z,98875.28
2022-08-09T05:10:34.517Z,98887.91
2022-08-09T05:13:04.094Z,98888.78
2022-08-09T05:15:39.251Z,98885.38
2022-08-09T05:18:50.439Z,98892.06
2022-08-09T05:21:02.082Z,98887.16
2022-08-09T05:23:55.697Z,98892.44
2022-08-09T05:26:22.319Z,98891.41
2022-08-09T05:29:03.035Z,98898.50
2022-08-09T05:31:44.044Z,98901.72
2022-08-09T05:34:16.584Z,98891.19
2022-08-09T05:36:46.851Z,98901.03
2022-08-09T05:39:28.536Z,98896.41
2022-08-09T05:42:02.831Z,98896.03
2022-08-09T05:44:34.812Z,98902.00
2022-08-09T05:47:05.444Z,98900.59
2022-08-09T05:50:24.087Z,98891.38
2022-08-09T05:52:21.351Z,98900.44
2022-08-09T05:54:52.321Z,98895.81
2022-08-09T05:57:19.437Z,98898.00
2022-08-09T05:59:52.303Z,98891.75
2022-08-09T06:02:20.160Z,98905.03
2022-08-09T06:04:48.973Z,98913.78
2022-08-09T06:07:21.461Z,98897.78
2022-08-09T06:10:01.721Z,98894.72
2022-08-09T06:12:31.507Z,98893.84
2022-08-09T06:15:01.287Z,98900.44
2022-08-09T06:17:40.061Z,98906.47
2022-08-09T06:20:08.777Z,98911.47
2022-08-09T06:22:36.825Z,98908.91
2022-08-09T06:25:04.489Z,98916.97
2022-08-09T06:27:42.103Z,98920.69
2022-08-09T06:30:14.103Z,98916.59
2022-08-09T06:32:59.093Z,98924.56
2022-08-09T06:35:56.440Z,98921.66
2022-08-09T06:38:16.185Z,98924.28
2022-08-09T06:40:43.703Z,98925.75
2022-08-09T06:43:11.528Z,98928.75
2022-08-09T06:46:06.808Z,98926.94
2022-08-09T06:48:31.137Z,98921.38
2022-08-09T06:51:00.143Z,98936.31
2022-08-09T06:53:33.211Z,98923.84
2022-08-09T06:56:07.504Z,98923.00
2022-08-09T07:00:47.522Z,98930.53
2022-08-09T07:01:24.207Z,98929.34
2022-08-09T07:03:57.821Z,98928.00
2022-08-09T07:06:30.638Z,98926.59
2022-08-09T07:08:57.640Z,98932.91
2022-08-09T07:11:25.531Z,98928.81
2022-08-09T07:14:04.790Z,98934.31
2022-08-09T07:16:41.487Z,98933.63
2022-08-09T07:19:22.843Z,98929.00
2022-08-09T07:21:57.272Z,98932.28
2022-08-09T07:24:32.602Z,98934.91
2022-08-09T07:27:26.356Z,98937.81
2022-08-09T07:29:59.299Z,98936.84
2022-08-09T07:32:32.819Z,98931.66
2022-08-09T07:35:10.510Z,98941.88
2022-08-09T07:37:44.622Z,98947.94
2022-08-09T07:40:16.968Z,98941.69
2022-08-09T07:43:00.465Z,98944.63
2022-08-09T07:45:39.605Z,98941.13
2022-08-09T07:48:28.451Z,98942.06
2022-08-09T07:51:09.865Z,98944.50
2022-08-09T07:54:05.957Z,98940.09
2022-08-09T07:56:44.660Z,98937.03
2022-08-09T07:59:16.108Z,98939.34
2022-08-09T08:01:53.136Z,98939.69
2022-08-09T08:04:20.686Z,98940.53
2022-08-09T08:07:00.371Z,98940.66
2022-08-09T08:09:51.463Z,98938.91
2022-08-09T08:12:27.593Z,98942.16
2022-08-09T08:14:57.219Z,98937.63
2022-08-09T08:17:52.172Z,98934.69
2022-08-09T08:20:13.087Z,98940.91
2022-08-09T08:22:41.020Z,98942.56
2022-08-09T08:25:13.813Z,98942.72
2022-08-09T08:27:43.128Z,98942.53
2022-08-09T08:30:14.845Z,98941.22
2022-08-09T08:32:53.905Z,98944.19
2022-08-09T08:35:22.805Z,98943.81
2022-08-09T08:38:01.903Z,98940.19
2022-08-09T08:40:36.924Z,98944.38
2022-08-09T08:43:13.383Z,98941.78
2022-08-09T08:46:00.157Z,98938.88
2022-08-09T08:48:37.320Z,98944.78
2022-08-09T08:51:04.872Z,98949.69
2022-08-09T08:53:37.210Z,98948.41
2022-08-09T08:56:07.022Z,98943.69
2022-08-09T08:58:36.163Z,98947.91
2022-08-09T09:01:08.627Z,98942.88
2022-08-09T09:03:37.538Z,98951.66
2022-08-09T09:06:07.372Z,98952.88
2022-08-09T09:08:42.449Z,98958.78
2022-08-09T09:11:13.792Z,98952.59
2022-08-09T09:13:57.858Z,98944.34
2022-08-09T09:16:33.925Z,98944.56
2022-08-09T09:19:36.827Z,98946.59
2022-08-09T09:22:03.759Z,98951.41
2022-08-09T09:24:50.057Z,98936.81
2022-08-09T09:28:06.556Z,98950.59
2022-08-09T09:30:28.867Z,98939.41
2022-08-09T09:33:13.915Z,98934.63
2022-08-09T09:36:02.157Z,98934.69
2022-08-09T09:38:50.094Z,98933.09
2022-08-09T09:41:23.170Z,98927.28
2022-08-09T09:44:12.646Z,98923.72
2022-08-09T09:46:45.667Z,98938.47
2022-08-09T09:49:31.992Z,98935.09
2022-08-09T09:52:16.555Z,98929.66
2022-08-09T09:55:24.468Z,98921.53
2022-08-09T09:58:17.268Z,98928.38
2022-08-09T10:00:58.906Z,98928.22
2022-08-09T10:03:57.848Z,98913.34
2022-08-09T10:06:32.154Z,98922.84
2022-08-09T10:09:21.753Z,98925.16
2022-08-09T10:12:14.876Z,98922.72
2022-08-09T10:14:49.292Z,98919.69
2022-08-09T10:17:55.065Z,98919.31
2022-08-09T10:20:27.605Z,98920.66
2022-08-09T10:23:17.327Z,98919.19
2022-08-09T10:26:07.497Z,98909.38
2022-08-09T10:28:35.779Z,98908.25
2022-08-09T10:34:09.951Z,98912.41
2022-08-09T10:36:39.112Z,98907.41
2022-08-09T10:39:15.972Z,98900.81
2022-08-09T10:41:47.654Z,98899.78
2022-08-09T10:44:23.085Z,98901.09
2022-08-09T10:48:25.970Z,98881.38
2022-08-09T10:50:49.560Z,98885.69
2022-08-09T10:53:37.869Z,98883.31
2022-08-09T10:56:45.378Z,98891.53
2022-08-09T10:59:31.347Z,98885.28
2022-08-09T11:03:11.917Z,98882.25
2022-08-09T11:05:25.211Z,98885.38
2022-08-09T11:07:59.391Z,98879.38
2022-08-09T11:10:47.162Z,98882.50
2022-08-09T11:13:50.002Z,98884.41
2022-08-09T11:16:37.013Z,98885.66
2022-08-09T11:19:10.082Z,98881.28
2022-08-09T11:22:10.865Z,98875.88
2022-08-09T11:25:03.571Z,98875.88
2022-08-09T11:28:04.333Z,98883.47
2022-08-09T11:30:37.837Z,98874.41
2022-08-09T11:33:32.727Z,98878.31
2022-08-09T11:36:01.794Z,98881.41
2022-08-09T11:38:34.097Z,98870.00
2022-08-09T11:41:12.868Z,98864.13
2022-08-09T11:43:49.145Z,98869.31
2022-08-09T11:46:26.417Z,98870.91
2022-08-09T11:49:00.759Z,98879.16
2022-08-09T11:53:00.641Z,98868.91
2022-08-09T11:55:53.617Z,98867.38
2022-08-09T11:58:30.401Z,98855.50
2022-08-09T12:01:09.037Z,98848.75
2022-08-09T12:03:56.222Z,98861.06
2022-08-09T12:06:32.807Z,98852.06
2022-08-09T12:09:20.952Z,98853.06
2022-08-09T12:12:03.928Z,98853.81
2022-08-09T12:14:41.091Z,98839.16
2022-08-09T12:17:34.697Z,98848.22
2022-08-09T12:20:21.426Z,98844.25
2022-08-09T12:22:58.368Z,98843.63
2022-08-09T12:25:36.743Z,98857.81
2022-08-09T12:29:10.891Z,98847.28
2022-08-09T12:31:10.706Z,98855.06
2022-08-09T12:33:58.668Z,98838.41
2022-08-09T12:36:32.217Z,98847.28
2022-08-09T12:39:01.487Z,98834.63
2022-08-09T12:41:39.326Z,98842.16
2022-08-09T12:44:10.078Z,98829.56
2022-08-09T12:46:48.891Z,98848.72
2022-08-09T12:49:18.047Z,98833.66
2022-08-09T12:52:02.372Z,98831.66
2022-08-09T12:55:03.442Z,98837.03
2022-08-09T12:57:46.880Z,98840.81
2022-08-09T13:00:25.809Z,98825.25
2022-08-09T13:02:59.748Z,98823.75
2022-08-09T13:05:52.248Z,98827.84
2022-08-09T13:08:39.740Z,98806.47
2022-08-09T13:11:13.186Z,98814.47
2022-08-09T13:14:43.008Z,98820.06
2022-08-09T13:16:58.193Z,98810.19
2022-08-09T13:20:09.679Z,98803.06
2022-08-09T13:22:36.660Z,98809.72
2022-08-09T13:25:14.207Z,98811.09
2022-08-09T13:27:48.574Z,98805.97
2022-08-09T13:30:50.036Z,98799.44
2022-08-09T13:33:20.995Z,98800.00
2022-08-09T13:36:39.816Z,98799.38
2022-08-09T13:38:55.738Z,98792.66
2022-08-09T13:41:58.937Z,98800.28
2022-08-09T13:44:16.396Z,98784.22
2022-08-09T13:47:25.274Z,98783.19
2022-08-09T13:49:39.663Z,98789.97
2022-08-09T13:52:21.630Z,98793.19
2022-08-09T13:54:58.689Z,98789.72
2022-08-09T13:57:36.399Z,98784.75
2022-08-09T14:00:12.620Z,98790.41
2022-08-09T14:03:04.171Z,98782.13
2022-08-09T14:06:01.302Z,98792.75
2022-08-09T14:08:23.458Z,98795.25
2022-08-09T14:10:53.111Z,98784.31
2022-08-09T14:13:27.929Z,98798.19
2022-08-09T14:16:15.676Z,98794.31
2022-08-09T14:18:49.266Z,98795.25
2022-08-09T14:21:20.275Z,98798.53
2022-08-09T14:23:54.708Z,98781.03
2022-08-09T14:26:32.937Z,98780.72
2022-08-09T14:29:08.319Z,98783.31
2022-08-09T14:31:54.100Z,98780.75
2022-08-09T14:34:27.367Z,98775.16
2022-08-09T14:37:09.061Z,98777.63
2022-08-09T14:39:45.469Z,98777.44
2022-08-09T14:42:30.502Z,98768.84
2022-08-09T14:46:40.122Z,98768.38
2022-08-09T14:47:58.055Z,98768.78
2022-08-09T14:50:31.004Z,98774.94
2022-08-09T14:53:00.544Z,98772.81
2022-08-09T14:55:29.084Z,98770.31
2022-08-09T14:58:03.864Z,98777.06
2022-08-09T15:00:35.189Z,98773.47
2022-08-09T15:03:10.577Z,98768.31
2022-08-09T15:05:38.814Z,98773.34
2022-08-09T15:08:10.401Z,98770.38
2022-08-09T15:10:38.239Z,98772.09
2022-08-09T15:13:06.026Z,98762.88
2022-08-09T15:15:38.826Z,98752.16
2022-08-09T15:18:08.255Z,98763.78
2022-08-09T15:21:56.348Z,98755.63
2022-08-09T15:24:03.137Z,98755.91
2022-08-09T15:26:19.010Z,98747.56
2022-08-09T15:28:58.003Z,98743.56
2022-08-09T15:31:41.479Z,98746.38
2022-08-09T15:34:33.152Z,98753.44
2022-08-09T15:36:58.078Z,98752.78
2022-08-09T15:39:26.014Z,98751.41
2022-08-09T15:42:02.731Z,98743.47
2022-08-09T15:44:32.681Z,98754.63
2022-08-09T15:47:00.935Z,98744.31
2022-08-09T15:49:28.425Z,98736.38
2022-08-09T15:52:04.890Z,98751.13
2022-08-09T15:54:49.430Z,98753.41
2022-08-09T15:57:35.518Z,98753.56
2022-08-09T16:00:26.050Z,98745.56
2022-08-09T16:02:56.288Z,98756.25
2022-08-09T16:05:47.806Z,98748.69
2022-08-09T16:08:29.694Z,98746.88
2022-08-09T16:10:59.272Z,98753.16
2022-08-09T16:14:03.760Z,98751.75
2022-08-09T16:16:18.486Z,98740.03
2022-08-09T16:18:47.417Z,98747.44
2022-08-09T16:21:17.826Z,98739.44
2022-08-09T16:23:59.025Z,98750.56
2022-08-09T16:26:34.068Z,98738.00
2022-08-09T16:29:11.380Z,98750.84
2022-08-09T16:32:18.923Z,98741.13
2022-08-09T16:34:55.325Z,98748.50
2022-08-09T16:37:53.309Z,98742.34
2022-08-09T16:40:11.619Z,98726.66
2022-08-09T16:42:45.427Z,98743.47
2022-08-09T16:45:18.749Z,98745.78
2022-08-09T16:48:42.731Z,98738.56
2022-08-09T16:50:38.669Z,98735.53
2022-08-09T16:53:06.342Z,98749.44
2022-08-09T16:55:57.716Z,98746.94
2022-08-09T16:58:21.250Z,98757.84
2022-08-09T17:00:52.208Z,98745.78
2022-08-09T17:03:22.090Z,98753.53
2022-08-09T17:06:03.479Z,98748.22
2022-08-09T17:08:46.140Z,98752.22
2022-08-09T17:11:24.676Z,98755.66
2022-08-09T17:14:04.777Z,98746.59
2022-08-09T17:16:31.939Z,98759.03
2022-08-09T17:19:05.543Z,98753.31
2022-08-09T17:21:32.695Z,98745.78
2022-08-09T17:24:27.433Z,98761.75
2022-08-09T17:26:52.002Z,98764.34
2022-08-09T17:29:21.140Z,98762.16
2022-08-09T17:31:49.334Z,98760.31
2022-08-09T17:34:59.817Z,98761.91
2022-08-09T17:37:04.473Z,98759.97
2022-08-09T17:39:48.294Z,98768.19
2022-08-09T17:42:51.363Z,98757.34
2022-08-09T17:45:06.746Z,98769.25
2022-08-09T17:47:55.495Z,98770.31
2022-08-09T17:50:35.956Z,98767.16
2022-08-09T17:53:10.382Z,98759.00
2022-08-09T17:55:54.116Z,98773.56
2022-08-09T17:58:26.951Z,98774.19
2022-08-09T18:00:56.715Z,98771.44
2022-08-09T18:03:25.851Z,98783.34
2022-08-09T18:05:55.577Z,98770.94
2022-08-09T18:08:27.759Z,98775.00
2022-08-09T18:11:01.575Z,98763.63
2022-08-09T18:13:53.808Z,98773.66
2022-08-09T18:16:29.475Z,98777.97
2022-08-09T18:18:59.498Z,98777.13
2022-08-09T18:21:41.026Z,98775.53
2022-08-09T18:24:14.628Z,98781.69
2022-08-09T18:26:46.011Z,98787.72
2022-08-09T18:30:38.670Z,98778.53
2022-08-09T18:32:05.633Z,98780.13
2022-08-09T18:34:35.432Z,98789.59
2022-08-09T18:37:04.699Z,98790.19
2022-08-09T18:39:39.649Z,98787.22
2022-08-09T18:42:09.260Z,98796.97
2022-08-09T18:44:37.065Z,98796.94
2022-08-09T18:47:09.802Z,98804.59
2022-08-09T18:49:43.809Z,98805.34
2022-08-09T18:52:18.884Z,98809.63
2022-08-09T18:54:53.446Z,98812.59
2022-08-09T18:57:22.775Z,98814.47
2022-08-09T18:59:57.525Z,98815.50
2022-08-09T19:02:31.845Z,98815.81
2022-08-09T19:05:19.611Z,98828.31
2022-08-09T19:08:04.656Z,98824.00
2022-08-09T19:10:37.475Z,98832.41
2022-08-09T19:13:23.154Z,98833.81
2022-08-09T19:15:58.878Z,98846.56
2022-08-09T19:18:33.976Z,98840.91
2022-08-09T19:21:09.488Z,98840.34
2022-08-09T19:24:32.919Z,98845.53
2022-08-09T19:26:31.648Z,98850.66
2022-08-09T19:29:03.098Z,98848.50
2022-08-09T19:31:45.515Z,98847.41
2022-08-09T19:34:21.352Z,98850.13
2022-08-09T19:36:50.777Z,98845.78
2022-08-09T19:39:20.479Z,98840.91
2022-08-09T19:41:48.748Z,98850.38
2022-08-09T19:44:21.115Z,98856.09
2022-08-09T19:46:53.550Z,98851.72
2022-08-09T19:50:07.566Z,98851.47
2022-08-09T19:52:10.188Z,98857.69
2022-08-09T19:54:39.874Z,98856.28
2022-08-09T19:57:08.481Z,98859.78
2022-08-09T19:59:58.047Z,98857.38
2022-08-09T20:04:08.420Z,98858.16
2022-08-09T20:05:15.229Z,98859.53
2022-08-09T20:07:58.813Z,98858.97
2022-08-09T20:10:34.643Z,98860.34
2022-08-09T20:13:05.690Z,98866.56
2022-08-09T20:16:34.393Z,98865.75
2022-08-09T20:18:22.448Z,98857.63
2022-08-09T20:20:51.407Z,98861.63
2022-08-09T20:23:23.037Z,98860.00
2022-08-09T20:25:53.538Z,98862.44
2022-08-09T20:28:24.372Z,98861.31
2022-08-09T20:31:04.699Z,98858.34
2022-08-09T20:33:41.052Z,98858.84
2022-08-09T20:36:10.893Z,98861.25
2022-08-09T20:39:28.352Z,98860.69
2022-08-09T20:41:34.962Z,98858.78
2022-08-09T20:44:06.851Z,98861.75
2022-08-09T20:46:43.253Z,98862.28
2022-08-09T20:49:14.002Z,98856.06
2022-08-09T20:51:43.732Z,98854.72
2022-08-09T20:54:16.587Z,98863.28
2022-08-09T20:56:49.372Z,98862.19
2022-08-09T20:59:49.966Z,98862.16
2022-08-09T21:02:10.845Z,98859.69
2022-08-09T21:05:57.594Z,98865.09
2022-08-09T21:07:38.730Z,98871.28
2022-08-09T21:10:09.290Z,98863.44
2022-08-09T21:12:38.761Z,98872.28
2022-08-09T21:15:12.639Z,98864.47
2022-08-09T21:18:23.237Z,98866.88
2022-08-09T21:20:30.053Z,98875.44
2022-08-09T21:22:59.355Z,98872.47
2022-08-09T21:25:56.312Z,98880.56
2022-08-09T21:28:34.209Z,98880.56
2022-08-09T21:31:18.079Z,98879.75
2022-08-09T21:33:52.695Z,98881.34
2022-08-09T21:36:28.527Z,98878.09
2022-08-09T21:38:58.811Z,98876.75
2022-08-09T21:42:03.895Z,98880.78
2022-08-09T21:44:34.342Z,98883.63
2022-08-09T21:47:08.921Z,98883.13
2022-08-09T21:49:43.026Z,98879.88
2022-08-09T21:52:17.049Z,98885.00
2022-08-09T21:54:51.123Z,98881.09
2022-08-09T21:57:39.385Z,98871.09
2022-08-09T22:00:31.840Z,98873.00
2022-08-09T22:03:06.905Z,98879.94
2022-08-09T22:05:42.055Z,98876.69
2022-08-09T22:08:14.645Z,98873.53
2022-08-09T22:11:48.868Z,98882.66
2022-08-09T22:13:34.590Z,98879.38
2022-08-09T22:16:08.374Z,98881.31
2022-08-09T22:18:38.627Z,98879.09
2022-08-09T22:21:24.967Z,98878.22
2022-08-09T22:24:01.663Z,98878.38
2022-08-09T22:26:34.936Z,98883.47
2022-08-09T22:29:10.175Z,98883.16
2022-08-09T22:31:50.223Z,98888.16
2022-08-09T22:34:26.400Z,98880.50
2022-08-09T22:36:55.736Z,98880.28
2022-08-09T22:39:56.020Z,98891.31
2022-08-09T22:42:16.243Z,98885.19
2022-08-09T22:48:04.771Z,98891.28
2022-08-09T22:48:11.602Z,98888.00
2022-08-09T22:50:24.046Z,98881.94
2022-08-09T22:52:54.825Z,98890.38
2022-08-09T22:55:39.209Z,98874.34
2022-08-09T22:58:20.433Z,98887.84
2022-08-09T23:01:01.270Z,98886.41
2022-08-09T23:04:02.802Z,98884.28
2022-08-09T23:06:35.735Z,98887.59
2022-08-09T23:09:05.940Z,98890.69
2022-08-09T23:11:32.919Z,98884.75
2022-08-09T23:14:00.078Z,98877.38
2022-08-09T23:16:27.093Z,98877.81
2022-08-09T23:18:54.062Z,98872.06
2022-08-09T23:21:25.228Z,98878.75
2022-08-09T23:24:05.691Z,98870.41
2022-08-09T23:26:38.584Z,98866.44
2022-08-09T23:29:08.392Z,98869.28
2022-08-09T23:31:35.361Z,98869.91
2022-08-09T23:34:03.871Z,98864.84
2022-08-09T23:36:32.285Z,98865.63
2022-08-09T23:38:59.547Z,98857.72
2022-08-09T23:41:28.719Z,98870.91
2022-08-09T23:43:58.753Z,98873.84
2022-08-09T23:46:26.585Z,98868.50
2022-08-09T23:48:53.562Z,98863.09
2022-08-09T23:51:20.615Z,98861.69
2022-08-09T23:53:50.620Z,98853.69
2022-08-09T23:56:39.590Z,98864.72
2022-08-09T23:59:06.979Z,98854.69
